Time;durP1;ratioP1;P1;durP2;ratioP2;P2;SDS_P1;SDS_P2;PMS_P1;PMS_P2;Temp;Humidity;BMP_temperature;BMP_pressure;BME280_temperature;BME280_humidity;BME280_pressure;Samples;Min_cycle;Max_cycle;Signal;HPM_P1;HPM_P2
2022/01/21 00:00:16;;;;;;;4.93;1.17;;;2.30;99.90;;;;;;5030218;28;20021;-90
2022/01/21 00:02:43;;;;;;;8.40;1.80;;;2.30;99.90;;;;;;5019835;28;20017;-90
2022/01/21 00:05:09;;;;;;;10.68;1.83;;;2.20;99.90;;;;;;5019536;28;20029;-91
2022/01/21 00:07:34;;;;;;;6.60;1.27;;;2.20;99.90;;;;;;5020074;28;20025;-90
2022/01/21 00:10:00;;;;;;;6.50;1.38;;;2.10;99.90;;;;;;5020860;28;20021;-90
2022/01/21 00:12:29;;;;;;;3.95;0.93;;;2.00;99.90;;;;;;5022158;28;20025;-90
2022/01/21 00:14:54;;;;;;;6.07;1.25;;;2.00;99.90;;;;;;5027618;28;20017;-90
2022/01/21 00:17:22;;;;;;;4.15;1.05;;;2.00;99.90;;;;;;5032493;28;20049;-91
2022/01/21 00:19:51;;;;;;;4.68;0.90;;;1.90;99.90;;;;;;5026516;28;20025;-90
2022/01/21 00:30:30;;;;;;;2.67;0.80;;;1.60;99.90;;;;;;5076620;28;20089;-89
2022/01/21 00:32:55;;;;;;;4.32;0.98;;;1.60;99.90;;;;;;5040256;28;20042;-90
2022/01/21 00:35:21;;;;;;;4.72;1.13;;;1.60;99.90;;;;;;5048600;28;20034;-89
2022/01/21 00:37:47;;;;;;;2.10;0.52;;;1.60;99.90;;;;;;5054302;28;20047;-90
2022/01/21 00:40:17;;;;;;;4.25;1.10;;;1.60;99.90;;;;;;5033555;28;20048;-89
2022/01/21 00:45:15;;;;;;;5.72;0.93;;;1.70;99.90;;;;;;5062007;28;20029;-89
2022/01/21 00:47:42;;;;;;;5.28;0.88;;;1.70;99.90;;;;;;5038651;28;20758;-90
2022/01/21 00:50:08;;;;;;;3.83;0.60;;;1.70;99.90;;;;;;5018631;28;20056;-89
2022/01/21 00:52:34;;;;;;;3.75;0.70;;;1.70;99.90;;;;;;5018610;28;20033;-89
2022/01/21 00:54:59;;;;;;;4.10;0.70;;;1.80;99.90;;;;;;5018637;28;20029;-89
2022/01/21 00:57:25;;;;;;;4.90;0.90;;;1.80;99.90;;;;;;5017285;28;20042;-90
2022/01/21 00:59:50;;;;;;;5.45;1.45;;;1.80;99.90;;;;;;5022247;28;20021;-90
2022/01/21 01:02:16;;;;;;;5.70;1.55;;;1.90;99.90;;;;;;5018330;28;20029;-90
2022/01/21 01:04:41;;;;;;;6.40;1.10;;;1.90;99.90;;;;;;5037973;28;20458;-90
2022/01/21 01:07:07;;;;;;;3.97;1.00;;;1.70;99.90;;;;;;5037337;28;20027;-90
2022/01/21 01:09:34;;;;;;;8.27;1.67;;;1.70;99.90;;;;;;5037460;28;20025;-90
2022/01/21 01:20:04;;;;;;;6.93;1.08;;;1.50;99.90;;;;;;5051038;28;20036;-90
2022/01/21 01:27:54;;;;;;;5.63;1.30;;;1.60;99.90;;;;;;5054652;28;20114;-90
2022/01/21 01:30:23;;;;;;;2.67;0.57;;;1.70;99.90;;;;;;5052515;28;20025;-90
2022/01/21 01:32:49;;;;;;;6.15;1.00;;;1.80;99.90;;;;;;5033820;28;20014;-90
2022/01/21 01:35:18;;;;;;;5.68;1.08;;;1.80;99.90;;;;;;5034518;28;20037;-91
2022/01/21 01:40:17;;;;;;;5.93;1.45;;;1.80;99.90;;;;;;5055995;28;20151;-90
2022/01/21 01:50:59;;;;;;;5.60;1.40;;;1.60;99.90;;;;;;5055533;28;20033;-90
2022/01/21 01:53:38;;;;;;;4.68;1.00;;;1.50;99.90;;;;;;5037270;28;20048;-91
2022/01/21 01:56:08;;;;;;;6.38;1.20;;;1.50;99.90;;;;;;5017712;28;20470;-90
2022/01/21 01:58:36;;;;;;;4.13;0.80;;;1.50;99.90;;;;;;5018026;28;20025;-90
2022/01/21 02:01:03;;;;;;;3.67;0.80;;;1.50;99.90;;;;;;5017942;28;20093;-90
2022/01/21 02:03:30;;;;;;;10.73;1.45;;;1.60;99.90;;;;;;5017713;28;20028;-91
2022/01/21 02:05:56;;;;;;;7.32;1.40;;;1.70;99.90;;;;;;5018416;28;20040;-91
2022/01/21 02:08:22;;;;;;;3.92;0.98;;;1.70;99.90;;;;;;5017593;28;20029;-90
2022/01/21 02:10:47;;;;;;;7.60;1.02;;;1.70;99.90;;;;;;5026527;28;20019;-90
2022/01/21 02:13:22;;;;;;;6.85;1.20;;;1.80;99.90;;;;;;5037833;28;20117;-90
2022/01/21 02:16:04;;;;;;;8.15;1.35;;;1.80;99.90;;;;;;5035890;28;20078;-90
2022/01/21 02:21:54;;;;;;;6.22;1.50;;;1.90;99.90;;;;;;5035511;28;20111;-90
2022/01/21 02:24:19;;;;;;;6.03;1.15;;;2.00;99.90;;;;;;5033617;28;20030;-90
2022/01/21 02:26:47;;;;;;;10.00;1.63;;;2.00;99.90;;;;;;5017509;28;20064;-90
2022/01/21 02:29:17;;;;;;;8.55;1.60;;;2.00;99.90;;;;;;5017468;28;20022;-90
2022/01/21 02:31:43;;;;;;;8.73;1.52;;;1.90;99.90;;;;;;5018627;28;20029;-89
2022/01/21 02:34:09;;;;;;;6.38;1.33;;;1.80;99.90;;;;;;5036831;28;20020;-90
2022/01/21 02:36:35;;;;;;;5.30;1.65;;;1.80;99.90;;;;;;5054243;28;20057;-89
2022/01/21 02:39:01;;;;;;;4.70;1.00;;;1.70;99.90;;;;;;5025733;28;20017;-90
2022/01/21 02:41:27;;;;;;;7.25;1.95;;;1.60;99.90;;;;;;5031983;28;20033;-89
2022/01/21 02:43:52;;;;;;;5.60;0.98;;;1.60;99.90;;;;;;5036994;28;20032;-89
2022/01/21 02:46:21;;;;;;;5.57;1.23;;;1.50;99.90;;;;;;5037070;28;20025;-89
2022/01/21 02:48:48;;;;;;;4.60;0.90;;;1.50;99.90;;;;;;5037102;28;20021;-90
2022/01/21 02:51:14;;;;;;;6.20;1.27;;;1.50;99.90;;;;;;5037129;28;20021;-90
2022/01/21 02:54:26;;;;;;;12.32;1.50;;;1.40;99.90;;;;;;5037071;28;20079;-89
2022/01/21 02:56:27;;;;;;;4.65;1.10;;;1.40;99.90;;;;;;5043710;28;20037;-90
2022/01/21 02:58:53;;;;;;;5.30;1.08;;;1.30;99.90;;;;;;5025959;28;20041;-89
2022/01/21 03:01:19;;;;;;;4.60;1.08;;;1.30;99.90;;;;;;5016942;28;20489;-90
2022/01/21 03:03:46;;;;;;;5.50;1.25;;;1.30;99.90;;;;;;5034434;28;20462;-90
2022/01/21 03:06:15;;;;;;;6.32;1.13;;;1.30;99.90;;;;;;5032006;28;20032;-90
2022/01/21 03:08:42;;;;;;;6.65;1.02;;;1.20;99.90;;;;;;5025391;28;20028;-90
2022/01/21 03:11:08;;;;;;;4.78;1.08;;;1.20;99.90;;;;;;5036999;28;20067;-90
2022/01/21 03:13:34;;;;;;;3.50;0.93;;;1.20;99.90;;;;;;5053317;28;20029;-89
2022/01/21 03:15:59;;;;;;;4.32;0.90;;;1.20;99.90;;;;;;5036781;28;20029;-90
2022/01/21 03:18:25;;;;;;;5.93;1.77;;;1.10;99.90;;;;;;5036664;28;20025;-90
2022/01/21 03:20:51;;;;;;;4.28;1.00;;;1.10;99.90;;;;;;5027045;28;20045;-90
2022/01/21 03:23:19;;;;;;;4.70;0.90;;;1.10;99.90;;;;;;5020912;28;20196;-90
2022/01/21 03:25:47;;;;;;;4.70;1.45;;;1.00;99.90;;;;;;5020610;28;20014;-90
2022/01/21 03:28:14;;;;;;;6.10;1.85;;;1.00;99.90;;;;;;5020756;28;20435;-90
2022/01/21 03:30:40;;;;;;;2.72;0.50;;;1.00;99.90;;;;;;5020642;28;20025;-90
2022/01/21 03:33:07;;;;;;;3.65;0.70;;;0.90;99.90;;;;;;5026766;28;20033;-90
2022/01/21 03:35:33;;;;;;;3.33;0.68;;;0.90;99.90;;;;;;5020532;28;20068;-91
2022/01/21 03:37:59;;;;;;;5.15;0.80;;;0.90;99.90;;;;;;5020903;28;20095;-90
2022/01/21 03:40:25;;;;;;;2.63;0.60;;;0.80;99.90;;;;;;5020624;28;20018;-90
2022/01/21 03:42:51;;;;;;;3.20;0.60;;;0.80;99.90;;;;;;5020517;28;20467;-90
2022/01/21 03:45:16;;;;;;;2.67;0.60;;;0.80;99.90;;;;;;5020295;28;20029;-90
2022/01/21 03:47:43;;;;;;;3.90;0.93;;;0.80;99.90;;;;;;5020146;28;20545;-90
2022/01/21 03:50:24;;;;;;;3.83;0.77;;;0.70;99.90;;;;;;5020361;28;20033;-90
2022/01/21 03:52:51;;;;;;;2.35;0.50;;;0.70;99.90;;;;;;5020584;28;20014;-89
2022/01/21 03:55:17;;;;;;;1.50;0.60;;;0.70;99.90;;;;;;5032906;28;20029;-89
2022/01/21 03:57:43;;;;;;;3.22;0.60;;;0.60;99.90;;;;;;5022688;28;20033;-90
2022/01/21 04:00:11;;;;;;;3.28;0.50;;;0.60;99.90;;;;;;5040016;28;20536;-89
2022/01/21 04:02:37;;;;;;;5.70;0.73;;;0.60;99.90;;;;;;5039634;28;20485;-89
2022/01/21 04:05:03;;;;;;;5.55;0.80;;;0.60;99.90;;;;;;5039285;28;20029;-89
2022/01/21 04:07:28;;;;;;;3.65;1.00;;;0.50;99.90;;;;;;5039187;28;20055;-89
2022/01/21 04:09:54;;;;;;;2.97;0.77;;;0.50;99.90;;;;;;5039856;28;20017;-90
2022/01/21 04:12:19;;;;;;;5.80;0.98;;;0.50;99.90;;;;;;5033108;28;20117;-89
2022/01/21 04:14:45;;;;;;;5.10;0.77;;;0.50;99.90;;;;;;5027869;28;20040;-89
2022/01/21 04:17:11;;;;;;;3.88;0.73;;;0.50;99.90;;;;;;5039040;28;20509;-89
2022/01/21 04:19:36;;;;;;;5.35;1.45;;;0.50;99.90;;;;;;5039603;28;20059;-89
2022/01/21 04:22:02;;;;;;;6.13;1.05;;;0.50;99.90;;;;;;5039411;28;20029;-88
2022/01/21 04:24:27;;;;;;;5.18;0.75;;;0.50;99.90;;;;;;5039616;28;20013;-89
2022/01/21 04:26:53;;;;;;;7.53;2.80;;;0.50;99.90;;;;;;5039249;28;20374;-89
2022/01/21 04:29:19;;;;;;;4.40;1.30;;;0.50;99.90;;;;;;5039043;28;20029;-89
2022/01/21 04:31:44;;;;;;;3.58;0.60;;;0.60;99.90;;;;;;5037846;28;20021;-89
2022/01/21 04:34:10;;;;;;;4.97;1.05;;;0.60;99.90;;;;;;5023043;28;20021;-88
2022/01/21 04:36:36;;;;;;;4.68;1.58;;;0.60;99.90;;;;;;5019985;28;20057;-89
2022/01/21 04:39:04;;;;;;;3.67;0.80;;;0.70;99.90;;;;;;5021455;28;20017;-89
2022/01/21 04:49:29;;;;;;;4.97;1.00;;;0.80;99.90;;;;;;5041614;28;20087;-89
2022/01/21 04:52:02;;;;;;;4.50;1.00;;;0.80;99.90;;;;;;5021479;28;20025;-90
2022/01/21 04:54:29;;;;;;;6.05;1.05;;;0.80;99.90;;;;;;5055101;28;20025;-89
2022/01/21 04:56:55;;;;;;;7.40;1.02;;;0.80;99.90;;;;;;5038661;28;20033;-89
2022/01/21 04:59:20;;;;;;;3.38;0.98;;;0.80;99.90;;;;;;5055008;28;20025;-90
2022/01/21 05:01:46;;;;;;;3.75;1.10;;;0.80;99.90;;;;;;5055907;28;20029;-90
2022/01/21 05:04:11;;;;;;;5.47;1.00;;;0.80;99.90;;;;;;5038340;28;20021;-88
2022/01/21 05:06:37;;;;;;;4.28;0.77;;;0.80;99.90;;;;;;5056525;28;20536;-90
2022/01/21 05:09:04;;;;;;;2.35;0.70;;;0.80;99.90;;;;;;5050280;28;20013;-90
2022/01/21 05:11:30;;;;;;;5.45;0.88;;;0.80;99.90;;;;;;5040695;28;20494;-89
2022/01/21 05:13:58;;;;;;;6.25;1.30;;;0.80;99.90;;;;;;5040197;28;20028;-89
2022/01/21 05:18:57;;;;;;;4.15;1.13;;;0.80;99.90;;;;;;5064215;28;20037;-89
2022/01/21 05:21:23;;;;;;;5.68;1.35;;;0.80;99.90;;;;;;5043275;28;20013;-89
2022/01/21 05:23:49;;;;;;;4.55;0.90;;;0.80;99.90;;;;;;5057973;28;20028;-90
2022/01/21 05:26:14;;;;;;;3.90;1.10;;;0.80;99.90;;;;;;5058256;28;20032;-89
2022/01/21 05:28:40;;;;;;;2.97;0.98;;;0.80;99.90;;;;;;5056572;28;20021;-90
2022/01/21 05:31:06;;;;;;;4.03;0.73;;;0.80;99.90;;;;;;5043041;28;20033;-90
2022/01/21 05:33:31;;;;;;;7.05;1.00;;;0.80;99.90;;;;;;5056722;28;20013;-89
2022/01/21 05:35:57;;;;;;;4.15;0.70;;;0.80;99.90;;;;;;5055055;28;20045;-89
2022/01/21 05:38:23;;;;;;;2.17;0.70;;;0.80;99.90;;;;;;5038853;28;20029;-89
2022/01/21 05:40:50;;;;;;;4.32;0.70;;;0.80;99.90;;;;;;5028352;28;20022;-88
2022/01/21 05:43:16;;;;;;;3.95;0.77;;;0.80;99.90;;;;;;5017290;28;20025;-89
2022/01/21 05:48:26;;;;;;;2.85;0.60;;;0.80;99.90;;;;;;5035201;28;20052;-88
2022/01/21 05:50:51;;;;;;;3.25;1.15;;;0.80;99.90;;;;;;5017140;28;20022;-87
2022/01/21 05:53:17;;;;;;;5.75;2.10;;;0.80;99.90;;;;;;5030608;28;20021;-88
2022/01/21 05:55:43;;;;;;;2.67;0.70;;;0.80;99.90;;;;;;5037262;28;20075;-88
2022/01/21 05:58:10;;;;;;;4.88;1.42;;;0.80;99.90;;;;;;5037299;28;20021;-88
2022/01/21 06:00:37;;;;;;;4.13;0.68;;;0.80;99.90;;;;;;5037277;28;20116;-87
2022/01/21 06:03:04;;;;;;;3.35;0.80;;;0.80;99.90;;;;;;5025469;28;20021;-87
2022/01/21 06:05:33;;;;;;;5.25;1.00;;;0.80;99.90;;;;;;5017483;28;20095;-88
2022/01/21 06:08:02;;;;;;;6.30;1.13;;;0.80;99.90;;;;;;5020219;28;20052;-89
2022/01/21 06:10:28;;;;;;;4.07;0.82;;;0.80;99.90;;;;;;5036602;28;20033;-88
2022/01/21 06:12:54;;;;;;;2.85;0.85;;;0.80;99.90;;;;;;5026936;28;20014;-88
2022/01/21 06:15:20;;;;;;;3.33;0.93;;;0.80;99.90;;;;;;5030940;28;20025;-89
2022/01/21 06:17:45;;;;;;;7.43;1.10;;;0.80;99.90;;;;;;5020732;28;20033;-89
2022/01/21 06:20:11;;;;;;;3.85;0.70;;;0.70;99.90;;;;;;5037362;28;20073;-89
2022/01/21 06:22:37;;;;;;;3.60;0.77;;;0.80;99.90;;;;;;5036995;28;20108;-89
2022/01/21 06:25:03;;;;;;;6.30;0.80;;;0.70;99.90;;;;;;5036232;28;20017;-88
2022/01/21 06:27:31;;;;;;;3.90;0.73;;;0.70;99.90;;;;;;5020647;28;20049;-89
2022/01/21 06:29:57;;;;;;;5.78;1.30;;;0.80;99.90;;;;;;5035500;28;20025;-88
2022/01/21 06:32:22;;;;;;;3.85;0.70;;;0.70;99.90;;;;;;5036544;28;20028;-88
2022/01/21 06:34:48;;;;;;;6.78;2.08;;;0.70;99.90;;;;;;5036980;28;20106;-89
2022/01/21 06:37:14;;;;;;;4.10;0.82;;;0.80;99.90;;;;;;5053525;28;20049;-88
2022/01/21 06:39:39;;;;;;;3.88;0.98;;;0.80;99.90;;;;;;5019832;28;20022;-89
2022/01/21 06:42:05;;;;;;;4.93;1.00;;;0.90;99.90;;;;;;5036501;28;20025;-87
2022/01/21 06:44:31;;;;;;;3.80;0.77;;;0.90;99.90;;;;;;5036290;28;20028;-88
2022/01/21 06:46:56;;;;;;;5.35;0.95;;;0.90;99.90;;;;;;5025933;28;20029;-88
2022/01/21 06:49:22;;;;;;;2.65;0.82;;;0.90;99.90;;;;;;5016736;28;20040;-88
2022/01/21 06:51:47;;;;;;;5.75;0.93;;;0.90;99.90;;;;;;5018025;28;20549;-88
2022/01/21 06:54:13;;;;;;;1.98;0.50;;;0.90;99.90;;;;;;5036168;28;20017;-88
2022/01/21 06:56:39;;;;;;;4.70;0.77;;;1.00;99.90;;;;;;5029415;28;20117;-88
2022/01/21 06:59:05;;;;;;;5.68;1.92;;;1.00;99.90;;;;;;5020769;28;20116;-88
2022/01/21 07:01:30;;;;;;;4.13;0.95;;;1.00;99.90;;;;;;5020670;28;20025;-88
2022/01/21 07:03:56;;;;;;;2.55;0.77;;;1.10;99.90;;;;;;5021156;28;20089;-87
2022/01/21 07:06:22;;;;;;;6.43;0.95;;;1.10;99.90;;;;;;5026938;28;20036;-88
2022/01/21 07:08:48;;;;;;;5.32;1.10;;;1.20;99.90;;;;;;5040660;28;20023;-87
2022/01/21 07:11:13;;;;;;;5.18;1.00;;;1.30;99.90;;;;;;5058201;28;20047;-89
2022/01/21 07:13:40;;;;;;;4.80;0.70;;;1.30;99.90;;;;;;5040858;28;20114;-89
2022/01/21 07:16:06;;;;;;;5.72;1.05;;;1.40;99.90;;;;;;5040503;28;20021;-88
2022/01/21 07:18:32;;;;;;;5.05;0.90;;;1.40;99.90;;;;;;5040806;28;20516;-88
2022/01/21 07:20:57;;;;;;;3.15;1.00;;;1.50;99.90;;;;;;5030170;28;20025;-88
2022/01/21 07:23:23;;;;;;;2.42;1.10;;;1.60;99.90;;;;;;5021336;28;20026;-88
2022/01/21 07:25:49;;;;;;;3.80;1.10;;;1.50;99.90;;;;;;5021566;28;20489;-88
2022/01/21 07:28:14;;;;;;;8.43;1.52;;;1.60;99.90;;;;;;5041229;28;20163;-87
2022/01/21 07:30:40;;;;;;;6.93;1.35;;;1.60;99.90;;;;;;5024095;28;20021;-88
2022/01/21 07:33:05;;;;;;;11.05;1.45;;;1.70;99.90;;;;;;5038545;28;20048;-87
2022/01/21 07:35:31;;;;;;;6.05;1.75;;;1.70;99.90;;;;;;5061346;28;20045;-86
2022/01/21 07:37:59;;;;;;;5.35;1.25;;;1.70;99.90;;;;;;5043802;28;20052;-86
2022/01/21 07:40:25;;;;;;;3.30;1.33;;;1.80;99.90;;;;;;5062709;28;20029;-88
2022/01/21 07:42:50;;;;;;;5.30;1.10;;;1.80;99.90;;;;;;5051191;28;20021;-88
2022/01/21 07:45:16;;;;;;;4.35;1.38;;;1.80;99.90;;;;;;5056090;28;20055;-88
2022/01/21 07:47:41;;;;;;;4.97;1.10;;;1.80;99.90;;;;;;5058201;28;20005;-89
2022/01/21 07:50:07;;;;;;;5.75;1.30;;;1.90;99.90;;;;;;5046048;28;20021;-86
2022/01/21 07:52:33;;;;;;;5.95;1.30;;;1.90;99.90;;;;;;5059896;28;20080;-86
2022/01/21 07:54:59;;;;;;;5.30;1.58;;;1.90;99.90;;;;;;5043844;28;20041;-87
2022/01/21 07:57:24;;;;;;;4.55;1.05;;;1.90;99.90;;;;;;5054047;28;20013;-90
2022/01/21 07:59:51;;;;;;;6.65;1.23;;;1.90;99.90;;;;;;5061903;28;20017;-90
2022/01/21 08:02:18;;;;;;;4.25;1.10;;;1.90;99.90;;;;;;5049094;28;20021;-86
2022/01/21 08:04:44;;;;;;;5.78;1.20;;;1.80;99.90;;;;;;5037328;28;20100;-86
2022/01/21 08:07:10;;;;;;;8.57;1.70;;;1.80;99.90;;;;;;5047792;28;20029;-85
2022/01/21 08:09:36;;;;;;;6.63;1.75;;;1.80;99.90;;;;;;5024295;28;20026;-87
2022/01/21 08:12:01;;;;;;;10.85;2.65;;;1.80;99.90;;;;;;5031402;28;20036;-87
2022/01/21 08:14:27;;;;;;;6.72;2.20;;;1.70;99.90;;;;;;5032578;28;20481;-86
2022/01/21 08:16:54;;;;;;;8.60;2.08;;;1.60;99.90;;;;;;5038515;28;20532;-87
2022/01/21 08:19:20;;;;;;;7.00;2.22;;;1.60;99.90;;;;;;5035397;28;20021;-86
2022/01/21 08:21:46;;;;;;;5.72;2.17;;;1.60;99.90;;;;;;5041874;28;20025;-87
2022/01/21 08:24:12;;;;;;;4.47;1.85;;;1.60;99.90;;;;;;5036138;28;20013;-88
2022/01/21 08:26:38;;;;;;;5.35;2.05;;;1.50;99.90;;;;;;5038949;28;20721;-88
2022/01/21 08:29:05;;;;;;;7.28;1.88;;;1.50;99.90;;;;;;5031492;28;20021;-86
2022/01/21 08:31:32;;;;;;;4.68;1.73;;;1.50;99.90;;;;;;5056951;28;20416;-86
2022/01/21 08:33:58;;;;;;;6.65;2.00;;;1.60;99.90;;;;;;5033966;28;20028;-85
2022/01/21 08:36:25;;;;;;;5.20;2.08;;;1.60;99.90;;;;;;5015806;28;20049;-86
2022/01/21 08:38:51;;;;;;;5.95;2.15;;;1.70;99.90;;;;;;5034915;28;20022;-85
2022/01/21 08:41:17;;;;;;;5.03;2.05;;;1.80;99.90;;;;;;5030800;28;20044;-88
2022/01/21 08:43:43;;;;;;;7.53;2.30;;;1.90;99.90;;;;;;5020195;28;20029;-86
2022/01/21 08:46:10;;;;;;;7.22;2.25;;;1.90;99.90;;;;;;5036638;28;20059;-88
2022/01/21 08:48:35;;;;;;;6.65;3.08;;;1.90;99.90;;;;;;5028994;28;20022;-86
2022/01/21 08:51:08;;;;;;;6.18;2.80;;;2.00;99.90;;;;;;5034404;28;20029;-87
2022/01/21 08:53:36;;;;;;;7.37;2.73;;;2.00;99.90;;;;;;5051208;28;20765;-89
2022/01/21 08:56:05;;;;;;;6.60;2.97;;;2.00;99.90;;;;;;5037205;28;20486;-89
2022/01/21 08:58:31;;;;;;;7.57;2.72;;;2.10;99.90;;;;;;5037975;28;20474;-89
2022/01/21 09:00:57;;;;;;;7.25;3.08;;;2.10;99.90;;;;;;5036699;28;20025;-87
2022/01/21 09:03:23;;;;;;;9.15;2.90;;;2.20;99.90;;;;;;5035775;28;20029;-86
2022/01/21 09:05:50;;;;;;;8.15;3.00;;;2.20;99.90;;;;;;5033967;28;20029;-87
2022/01/21 09:08:23;;;;;;;10.82;3.95;;;2.30;99.90;;;;;;5015075;28;20035;-88
2022/01/21 09:10:49;;;;;;;11.50;4.07;;;2.40;99.90;;;;;;5024997;28;20020;-88
2022/01/21 09:13:14;;;;;;;7.68;3.63;;;2.70;99.90;;;;;;5034574;28;20024;-88
2022/01/21 09:15:40;;;;;;;10.48;3.65;;;3.40;99.90;;;;;;5034790;28;20033;-87
2022/01/21 09:18:06;;;;;;;7.60;3.20;;;4.40;99.90;;;;;;5016108;28;20502;-86
2022/01/21 09:20:37;;;;;;;7.10;3.15;;;5.20;99.90;;;;;;5014776;28;20471;-87
2022/01/21 09:23:04;;;;;;;5.60;2.90;;;5.50;99.90;;;;;;5027338;28;20485;-88
2022/01/21 09:25:29;;;;;;;6.95;3.15;;;5.30;99.90;;;;;;5035715;28;20115;-90
2022/01/21 09:27:55;;;;;;;9.73;3.35;;;5.00;99.90;;;;;;5018636;28;20057;-88
2022/01/21 09:30:21;;;;;;;10.93;3.50;;;4.60;99.90;;;;;;5029560;28;20021;-86
2022/01/21 09:32:46;;;;;;;9.90;3.92;;;4.30;99.90;;;;;;5015028;28;20026;-87
2022/01/21 09:35:12;;;;;;;11.75;4.32;;;4.10;99.90;;;;;;5015305;28;20507;-85
2022/01/21 09:37:38;;;;;;;9.48;4.13;;;4.80;99.90;;;;;;5014961;28;20049;-87
2022/01/21 09:40:05;;;;;;;17.90;5.60;;;5.10;99.90;;;;;;5015358;28;20025;-87
2022/01/21 09:42:35;;;;;;;9.23;4.43;;;5.10;99.90;;;;;;5023598;28;20032;-91
2022/01/21 09:45:08;;;;;;;10.43;4.50;;;5.10;99.90;;;;;;5035695;28;20482;-89
2022/01/21 09:47:44;;;;;;;16.77;6.10;;;4.90;99.90;;;;;;5036262;28;20048;-87
2022/01/21 09:50:11;;;;;;;11.50;5.20;;;4.80;99.90;;;;;;5036104;28;20017;-88
2022/01/21 09:52:37;;;;;;;13.02;4.68;;;5.40;99.90;;;;;;5027009;28;20475;-88
2022/01/21 09:55:04;;;;;;;8.00;3.90;;;6.40;99.90;;;;;;5015584;28;20036;-87
2022/01/21 09:57:31;;;;;;;9.15;3.80;;;7.50;99.90;;;;;;5033085;28;20036;-87
2022/01/21 09:59:58;;;;;;;13.00;4.70;;;8.60;99.90;;;;;;5036408;28;20100;-87
2022/01/21 10:02:28;;;;;;;10.95;3.75;;;9.30;99.90;;;;;;5053827;28;20075;-87
2022/01/21 10:04:57;;;;;;;11.07;3.15;;;9.70;99.90;;;;;;5028516;28;20039;-87
2022/01/21 10:07:24;;;;;;;11.20;3.67;;;9.90;99.90;;;;;;5024153;28;20032;-86
2022/01/21 10:09:51;;;;;;;8.85;2.72;;;10.20;99.90;;;;;;5058220;28;20089;-89
2022/01/21 10:12:17;;;;;;;9.95;3.40;;;10.60;99.90;;;;;;5042772;28;20021;-88
2022/01/21 10:14:43;;;;;;;8.82;3.00;;;11.00;99.90;;;;;;5034839;28;20029;-88
2022/01/21 10:17:10;;;;;;;9.75;3.10;;;11.40;99.90;;;;;;5041007;28;20097;-89
2022/01/21 10:19:39;;;;;;;10.65;3.00;;;11.60;99.90;;;;;;5040970;28;20021;-88
2022/01/21 10:22:10;;;;;;;8.60;2.42;;;11.60;99.90;;;;;;5023810;28;20029;-90
2022/01/21 10:25:01;;;;;;;5.90;2.30;;;11.10;99.90;;;;;;5040375;28;20027;-88
2022/01/21 10:27:29;;;;;;;7.65;2.53;;;10.60;99.90;;;;;;5022643;28;20029;-89
2022/01/21 10:29:56;;;;;;;10.55;3.42;;;10.20;99.90;;;;;;5031790;28;20002;-90
2022/01/21 10:32:36;;;;;;;8.02;2.83;;;10.10;99.90;;;;;;5048598;28;20024;-88
2022/01/21 10:35:02;;;;;;;12.23;3.20;;;9.80;99.90;;;;;;5027913;28;20037;-88
2022/01/21 10:37:35;;;;;;;11.77;3.83;;;9.40;99.90;;;;;;5030044;28;20048;-89
2022/01/21 10:40:08;;;;;;;7.63;2.17;;;8.90;99.90;;;;;;5017276;28;20158;-88
2022/01/21 10:42:35;;;;;;;8.52;2.42;;;8.40;99.90;;;;;;5028729;28;20051;-87
2022/01/21 10:45:03;;;;;;;6.68;2.42;;;8.00;99.90;;;;;;5021500;28;20018;-88
2022/01/21 10:47:35;;;;;;;6.88;2.67;;;7.70;99.90;;;;;;5028885;28;20044;-87
2022/01/21 10:50:11;;;;;;;9.50;3.08;;;7.50;99.90;;;;;;5015155;28;20079;-88
2022/01/21 10:52:37;;;;;;;10.00;2.80;;;7.40;99.90;;;;;;5021002;28;20306;-90
2022/01/21 10:55:05;;;;;;;12.02;3.35;;;7.30;99.90;;;;;;5022554;28;20780;-88
2022/01/21 10:57:32;;;;;;;10.93;2.80;;;7.20;99.90;;;;;;5029044;28;20401;-88
2022/01/21 11:00:07;;;;;;;11.43;2.90;;;7.20;99.90;;;;;;5017210;28;20557;-88
2022/01/21 11:02:39;;;;;;;13.40;3.20;;;7.00;99.90;;;;;;5032688;28;20111;-88
2022/01/21 11:05:11;;;;;;;7.88;2.83;;;6.70;99.90;;;;;;5033322;28;20025;-90
2022/01/21 11:07:44;;;;;;;9.40;2.58;;;6.40;99.90;;;;;;5018396;28;20064;-89
2022/01/21 11:10:29;;;;;;;9.95;2.92;;;6.30;99.90;;;;;;5018490;28;20021;-88
2022/01/21 11:12:55;;;;;;;14.27;3.78;;;6.30;99.90;;;;;;5024212;28;20034;-87
2022/01/21 11:15:21;;;;;;;10.10;2.72;;;6.30;99.90;;;;;;5014095;28;20080;-89
2022/01/21 11:17:58;;;;;;;14.98;3.53;;;6.30;99.90;;;;;;5031494;28;20041;-89
2022/01/21 11:20:32;;;;;;;12.43;2.78;;;6.30;99.90;;;;;;5027223;28;20044;-89
2022/01/21 11:22:59;;;;;;;12.77;3.17;;;6.40;99.90;;;;;;5024645;28;20476;-90
2022/01/21 11:25:54;;;;;;;12.02;3.53;;;6.40;99.90;;;;;;5020060;28;20550;-89
2022/01/21 11:28:22;;;;;;;8.02;2.78;;;6.40;99.90;;;;;;5012052;28;20029;-88
2022/01/21 11:30:50;;;;;;;8.02;2.58;;;6.40;99.90;;;;;;5049362;28;20036;-86
2022/01/21 11:33:15;;;;;;;9.60;2.42;;;6.30;99.90;;;;;;5037346;28;20025;-85
2022/01/21 11:35:41;;;;;;;9.15;2.72;;;6.30;99.90;;;;;;5030901;28;20051;-86
2022/01/21 11:38:12;;;;;;;8.32;2.47;;;6.40;99.90;;;;;;5016652;28;20166;-85
2022/01/21 11:40:40;;;;;;;11.63;3.00;;;6.40;99.90;;;;;;5032601;28;20021;-86
2022/01/21 11:43:09;;;;;;;11.30;2.67;;;6.50;99.90;;;;;;5023351;28;20483;-84
2022/01/21 11:50:46;;;;;;;9.02;2.40;;;6.40;99.90;;;;;;5047001;28;20021;-91
2022/01/21 11:53:13;;;;;;;8.18;1.92;;;6.40;99.90;;;;;;5029395;28;20037;-87
2022/01/21 11:55:45;;;;;;;7.43;2.20;;;6.40;99.90;;;;;;5020114;28;20111;-89
2022/01/21 11:58:22;;;;;;;7.15;1.60;;;6.40;99.90;;;;;;5021503;28;20071;-87
2022/01/21 12:00:51;;;;;;;8.32;1.52;;;6.30;99.90;;;;;;5038723;28;20529;-87
2022/01/21 12:03:23;;;;;;;5.18;1.30;;;6.30;99.90;;;;;;5039167;28;20032;-87
2022/01/21 12:05:50;;;;;;;4.55;1.10;;;6.30;99.90;;;;;;5039641;28;20036;-87
2022/01/21 12:08:35;;;;;;;6.97;1.63;;;6.30;99.90;;;;;;5039032;28;20051;-87
2022/01/21 12:11:37;;;;;;;8.60;1.88;;;6.30;99.90;;;;;;5039081;28;20021;-87
2022/01/21 12:14:26;;;;;;;9.00;1.95;;;6.40;99.90;;;;;;5022590;28;20122;-88
2022/01/21 12:16:57;;;;;;;7.35;1.73;;;6.40;99.90;;;;;;5038426;28;20051;-88
2022/01/21 12:19:37;;;;;;;6.90;1.50;;;6.40;99.90;;;;;;5038645;28;20047;-87
2022/01/21 12:22:18;;;;;;;9.90;2.30;;;6.50;99.90;;;;;;5038530;28;20024;-88
2022/01/21 12:24:54;;;;;;;6.57;2.17;;;6.50;99.90;;;;;;5038652;28;20045;-88
2022/01/21 12:27:23;;;;;;;8.35;2.55;;;6.60;99.90;;;;;;5038564;28;20494;-88
2022/01/21 12:29:49;;;;;;;7.85;2.00;;;6.70;99.90;;;;;;5037318;28;20493;-88
2022/01/21 12:32:29;;;;;;;9.05;2.20;;;6.70;99.90;;;;;;5023729;28;20009;-87
2022/01/21 12:35:08;;;;;;;9.25;2.78;;;6.80;99.90;;;;;;5038772;28;20029;-88
2022/01/21 12:38:03;;;;;;;10.70;2.17;;;6.80;99.90;;;;;;5038526;28;20045;-88
2022/01/21 12:40:36;;;;;;;14.27;2.08;;;6.80;99.90;;;;;;5038410;28;20021;-88
2022/01/21 12:43:40;;;;;;;8.73;1.85;;;6.80;99.90;;;;;;5038043;28;20032;-88
2022/01/21 12:46:14;;;;;;;9.23;1.80;;;6.90;99.90;;;;;;5033984;28;20052;-87
2022/01/21 12:48:45;;;;;;;10.95;2.10;;;6.80;99.90;;;;;;5026093;28;20017;-86
2022/01/21 12:51:16;;;;;;;8.02;2.03;;;6.80;99.90;;;;;;5037693;28;20120;-87
2022/01/21 12:56:44;;;;;;;8.15;2.03;;;6.80;99.90;;;;;;5047400;28;20044;-86
2022/01/21 12:59:18;;;;;;;8.55;2.10;;;6.80;99.90;;;;;;5047930;28;20540;-87
2022/01/21 13:01:45;;;;;;;12.07;2.35;;;6.90;99.90;;;;;;5020825;28;20053;-87
2022/01/21 13:04:14;;;;;;;10.55;1.95;;;6.90;99.90;;;;;;5055416;28;20026;-86
2022/01/21 13:07:03;;;;;;;6.45;2.08;;;6.90;99.90;;;;;;5029434;28;20034;-88
2022/01/21 13:10:01;;;;;;;7.47;1.50;;;6.90;99.90;;;;;;5032411;28;20068;-88
2022/01/21 13:13:00;;;;;;;8.60;1.88;;;6.90;99.90;;;;;;5041521;28;20017;-88
2022/01/21 13:15:45;;;;;;;8.93;2.17;;;7.00;99.90;;;;;;5040801;28;20037;-88
2022/01/21 13:18:18;;;;;;;12.50;2.40;;;7.00;99.90;;;;;;5040366;28;20075;-87
2022/01/21 13:20:47;;;;;;;7.80;2.55;;;6.90;99.90;;;;;;5037573;28;20130;-88
2022/01/21 13:23:31;;;;;;;9.00;2.30;;;6.90;99.90;;;;;;5034540;28;20067;-89
2022/01/21 13:26:13;;;;;;;;;;;6.90;99.90;;;;;;5038327;28;20078;-88
2022/01/21 13:29:11;;;;;;;12.45;1.95;;;6.90;99.90;;;;;;5033761;28;19905;-88
2022/01/21 13:31:53;;;;;;;7.90;1.63;;;6.90;99.90;;;;;;5024723;28;20112;-87
2022/01/21 13:34:20;;;;;;;11.02;1.88;;;6.90;99.90;;;;;;5027001;28;20033;-88
2022/01/21 13:36:48;;;;;;;8.18;2.85;;;6.80;99.90;;;;;;5032861;28;20049;-88
2022/01/21 13:39:23;;;;;;;10.68;3.45;;;6.90;99.90;;;;;;5039766;28;20114;-87
2022/01/21 13:41:54;;;;;;;9.15;1.85;;;6.90;99.90;;;;;;5019498;28;20029;-88
2022/01/21 13:44:36;;;;;;;7.95;2.25;;;7.00;99.90;;;;;;5031219;28;20070;-87
2022/01/21 13:47:05;;;;;;;8.13;2.00;;;7.00;99.90;;;;;;5024172;28;20060;-88
2022/01/21 13:49:32;;;;;;;12.30;2.50;;;7.00;99.90;;;;;;5014227;28;20112;-87
2022/01/21 13:52:05;;;;;;;12.30;2.40;;;7.00;99.90;;;;;;5034442;28;20018;-87
2022/01/21 13:54:41;;;;;;;6.82;1.25;;;7.00;99.90;;;;;;5027704;28;20021;-86
2022/01/21 13:57:07;;;;;;;15.18;2.85;;;7.00;99.90;;;;;;5034386;28;20037;-87
2022/01/21 13:59:33;;;;;;;10.48;1.83;;;7.00;99.90;;;;;;4998095;28;20029;-87
2022/01/21 14:02:14;;;;;;;14.27;2.30;;;7.00;99.90;;;;;;5064060;28;20025;-86